Atlantic Beach, NC

10:59 PM EDT on August 04, 2015 (GMT -0400)
Oceanfront Court | | Change Station
CLOSE
Current Station
Personal Weather Station
Location: Indian Beach, NC
Elevation: 13 ft
Nearby Weather Stations

Elev 13 ft 34.69 °N, 76.90 °W | Updated 23 seconds ago

Overcast
Overcast
80.8 °F
Feels Like 88 °F
N
17.0
Wind Variable Wind from SE
Gusts 17.0 mph

Today
High -- | Low -- °F
--% Chance of Precip.
Yesterday
High -- | Low -- °F
Precip. -- in
6:19 AM 8:07 PM
Waning Gibbous, 72% visible
Pressure 29.95 in
Visibility 9.0 miles
Clouds Mostly Cloudy 1000 ft
Mostly Cloudy 1400 ft
Heat Index 88 °F
Dew Point 78 °F
Humidity 92%
Rainfall 0.02 in
Snow Depth Not available.
UV 0 out of 12
Pollen 1.30 out of 12
Air Quality Not available.
Flu Activity Not available.
SPECI KNJM 050250Z AUTO 23008KT 9SM VCTS BKN010 BKN014 27/25 A2995 RMK AO2 RAE21 TSE05E44 CIG 008V012 P0000 T02720250

More Conditions Fewer Conditions

Pressure 29.95 in
Visibility 9.0 miles
Clouds Mostly Cloudy 1000 ft
Mostly Cloudy 1400 ft
Heat Index 88 °F
Dew Point 78 °F
Humidity 92%
Rainfall 0.02 in
Snow Depth Not available.
UV 0 out of 12
Pollen 1.30 out of 12
Air Quality Not available.
Flu Activity Not available.
SPECI KNJM 050250Z AUTO 23008KT 9SM VCTS BKN010 BKN014 27/25 A2995 RMK AO2 RAE21 TSE05E44 CIG 008V012 P0000 T02720250

More Conditions Fewer Conditions

10-Day Weather Forecast

×

Almanac

Astronomy

Aug. 04, 2015 Rise Set
Actual Time
Civil Twilight
Nautical Twilight
Astronomical Twilight
Moon
Length of Visible Light
Length of Day
Tomorrow will be .
, % of the Moon is Illuminated

Today's Extremes

State Highs State Lows

Community

WunderPhotos

Upload Photos

1,844,089 photos uploaded!

WunderBlogs® & News

Nearby

Air Quality

  Air Quality AQ Index Pollutant
Not available.

Snow Depth

Station Depth Elevation

Earthquake Activity

City Distance Mag. Time & Date
Minimum magnitude displayed is 2.5.

Coastal Water Temperatures

Place Temperature

Stations

Nearby Weather Stations

Station Location Temp. Windchill Dew Point Humidity Wind Precip. Elev Updated Type